sensor_id;sensor_type;location;lat;lon;timestamp;temperature;humidity
37342;DHT22;58643;49.052;8.518;2023-08-06T10:46:21;14.70;99.90
37342;DHT22;58643;49.052;8.518;2023-08-06T10:48:47;15.20;99.90
37342;DHT22;58643;49.052;8.518;2023-08-06T10:51:13;16.80;99.90
37342;DHT22;58643;49.052;8.518;2023-08-06T10:53:45;14.80;99.90
37342;DHT22;58643;49.052;8.518;2023-08-06T10:56:15;16.20;99.90
37342;DHT22;58643;49.052;8.518;2023-08-06T10:58:46;16.40;99.90
37342;DHT22;58643;49.052;8.518;2023-08-06T11:01:12;16.30;99.90
37342;DHT22;58643;49.052;8.518;2023-08-06T11:03:39;15.70;99.90
37342;DHT22;58643;49.052;8.518;2023-08-06T11:08:36;14.60;99.90
37342;DHT22;58643;49.052;8.518;2023-08-06T11:13:37;14.70;99.90
37342;DHT22;58643;49.052;8.518;2023-08-06T11:16:03;14.70;99.90
37342;DHT22;58643;49.052;8.518;2023-08-06T11:18:29;14.40;99.90
37342;DHT22;58643;49.052;8.518;2023-08-06T11:20:55;15.70;99.90
37342;DHT22;58643;49.052;8.518;2023-08-06T11:23:20;14.70;99.90
37342;DHT22;58643;49.052;8.518;2023-08-06T11:25:46;15.30;99.90
37342;DHT22;58643;49.052;8.518;2023-08-06T11:28:12;15.90;99.90
37342;DHT22;58643;49.052;8.518;2023-08-06T11:30:38;15.40;99.90
37342;DHT22;58643;49.052;8.518;2023-08-06T11:33:07;16.80;99.90
37342;DHT22;58643;49.052;8.518;2023-08-06T11:35:35;14.20;99.90
37342;DHT22;58643;49.052;8.518;2023-08-06T11:38:01;14.50;99.90
37342;DHT22;58643;49.052;8.518;2023-08-06T11:40:26;15.40;99.90
37342;DHT22;58643;49.052;8.518;2023-08-06T11:42:52;14.30;99.90
37342;DHT22;58643;49.052;8.518;2023-08-06T11:45:22;14.10;99.90
37342;DHT22;58643;49.052;8.518;2023-08-06T11:47:52;17.00;99.90
37342;DHT22;58643;49.052;8.518;2023-08-06T11:50:25;17.20;99.90
37342;DHT22;58643;49.052;8.518;2023-08-06T11:52:59;14.20;99.90
37342;DHT22;58643;49.052;8.518;2023-08-06T11:55:26;15.60;99.90
37342;DHT22;58643;49.052;8.518;2023-08-06T11:57:54;14.40;99.90
37342;DHT22;58643;49.052;8.518;2023-08-06T12:00:20;16.40;99.90
37342;DHT22;58643;49.052;8.518;2023-08-06T12:02:48;14.50;99.90
37342;DHT22;58643;49.052;8.518;2023-08-06T12:05:17;15.10;99.90
37342;DHT22;58643;49.052;8.518;2023-08-06T12:07:48;15.10;99.90
37342;DHT22;58643;49.052;8.518;2023-08-06T12:10:14;16.40;99.90
37342;DHT22;58643;49.052;8.518;2023-08-06T12:12:40;17.10;99.90
37342;DHT22;58643;49.052;8.518;2023-08-06T12:15:07;16.40;99.90
37342;DHT22;58643;49.052;8.518;2023-08-06T12:17:34;15.30;99.90
37342;DHT22;58643;49.052;8.518;2023-08-06T12:19:59;15.50;99.90
37342;DHT22;58643;49.052;8.518;2023-08-06T12:22:25;16.50;99.90
37342;DHT22;58643;49.052;8.518;2023-08-06T12:24:51;15.70;99.90
37342;DHT22;58643;49.052;8.518;2023-08-06T12:27:17;17.40;99.90
37342;DHT22;58643;49.052;8.518;2023-08-06T12:29:49;16.30;99.90
37342;DHT22;58643;49.052;8.518;2023-08-06T12:32:15;15.30;99.90
37342;DHT22;58643;49.052;8.518;2023-08-06T12:34:41;15.60;99.90
37342;DHT22;58643;49.052;8.518;2023-08-06T12:37:10;15.80;99.90
37342;DHT22;58643;49.052;8.518;2023-08-06T12:39:36;15.40;99.90
37342;DHT22;58643;49.052;8.518;2023-08-06T12:42:04;18.40;99.90
37342;DHT22;58643;49.052;8.518;2023-08-06T12:44:30;15.60;99.90
37342;DHT22;58643;49.052;8.518;2023-08-06T12:46:56;17.00;99.90
37342;DHT22;58643;49.052;8.518;2023-08-06T12:49:22;16.00;99.90
37342;DHT22;58643;49.052;8.518;2023-08-06T12:51:49;17.30;99.90
37342;DHT22;58643;49.052;8.518;2023-08-06T12:54:16;15.70;99.90
37342;DHT22;58643;49.052;8.518;2023-08-06T12:56:42;17.60;99.90
37342;DHT22;58643;49.052;8.518;2023-08-06T12:59:08;15.90;99.90
37342;DHT22;58643;49.052;8.518;2023-08-06T13:01:33;15.80;99.90
37342;DHT22;58643;49.052;8.518;2023-08-06T13:04:00;17.30;99.90
37342;DHT22;58643;49.052;8.518;2023-08-06T13:06:26;16.90;99.90
37342;DHT22;58643;49.052;8.518;2023-08-06T13:08:51;15.90;99.90
37342;DHT22;58643;49.052;8.518;2023-08-06T13:11:17;16.30;99.90
37342;DHT22;58643;49.052;8.518;2023-08-06T13:13:44;17.10;99.90
37342;DHT22;58643;49.052;8.518;2023-08-06T13:16:10;16.80;99.90
37342;DHT22;58643;49.052;8.518;2023-08-06T13:18:35;17.30;99.90
37342;DHT22;58643;49.052;8.518;2023-08-06T13:21:01;17.20;99.90
37342;DHT22;58643;49.052;8.518;2023-08-06T13:23:27;17.10;99.90
37342;DHT22;58643;49.052;8.518;2023-08-06T13:25:53;17.50;99.90
37342;DHT22;58643;49.052;8.518;2023-08-06T13:28:19;17.20;99.90
37342;DHT22;58643;49.052;8.518;2023-08-06T13:30:45;17.70;99.90
37342;DHT22;58643;49.052;8.518;2023-08-06T13:33:11;17.70;99.90
37342;DHT22;58643;49.052;8.518;2023-08-06T13:35:37;17.70;99.90
37342;DHT22;58643;49.052;8.518;2023-08-06T13:38:03;17.30;99.90
37342;DHT22;58643;49.052;8.518;2023-08-06T13:40:29;17.60;99.90
37342;DHT22;58643;49.052;8.518;2023-08-06T13:42:55;17.40;99.90
37342;DHT22;58643;49.052;8.518;2023-08-06T13:45:21;18.70;99.90
37342;DHT22;58643;49.052;8.518;2023-08-06T13:47:47;17.50;99.90
37342;DHT22;58643;49.052;8.518;2023-08-06T13:50:13;17.60;99.90
37342;DHT22;58643;49.052;8.518;2023-08-06T13:52:39;17.20;99.90
37342;DHT22;58643;49.052;8.518;2023-08-06T13:55:05;17.10;99.90
37342;DHT22;58643;49.052;8.518;2023-08-06T13:57:31;17.10;99.90
37342;DHT22;58643;49.052;8.518;2023-08-06T13:59:56;17.50;99.90
37342;DHT22;58643;49.052;8.518;2023-08-06T14:02:22;16.90;99.90
37342;DHT22;58643;49.052;8.518;2023-08-06T14:04:48;17.00;99.90
37342;DHT22;58643;49.052;8.518;2023-08-06T14:07:14;17.00;99.90
37342;DHT22;58643;49.052;8.518;2023-08-06T14:09:39;17.60;99.90
37342;DHT22;58643;49.052;8.518;2023-08-06T14:12:06;16.90;99.90
37342;DHT22;58643;49.052;8.518;2023-08-06T14:14:31;16.50;99.90
37342;DHT22;58643;49.052;8.518;2023-08-06T14:16:57;17.00;99.90
37342;DHT22;58643;49.052;8.518;2023-08-06T14:19:23;16.70;99.90
37342;DHT22;58643;49.052;8.518;2023-08-06T14:21:49;17.20;99.90
37342;DHT22;58643;49.052;8.518;2023-08-06T14:24:14;18.10;99.90
37342;DHT22;58643;49.052;8.518;2023-08-06T14:26:40;17.70;99.90
37342;DHT22;58643;49.052;8.518;2023-08-06T14:29:06;17.80;99.90
37342;DHT22;58643;49.052;8.518;2023-08-06T14:31:32;17.60;99.90
37342;DHT22;58643;49.052;8.518;2023-08-06T14:33:57;17.70;99.90
37342;DHT22;58643;49.052;8.518;2023-08-06T14:36:23;17.90;99.90
37342;DHT22;58643;49.052;8.518;2023-08-06T14:38:49;18.30;99.90
37342;DHT22;58643;49.052;8.518;2023-08-06T14:41:14;18.00;99.90
37342;DHT22;58643;49.052;8.518;2023-08-06T14:43:40;17.60;99.90
37342;DHT22;58643;49.052;8.518;2023-08-06T14:46:05;17.80;99.90
37342;DHT22;58643;49.052;8.518;2023-08-06T14:48:31;19.10;99.90
37342;DHT22;58643;49.052;8.518;2023-08-06T14:50:57;17.80;99.90
37342;DHT22;58643;49.052;8.518;2023-08-06T14:53:22;17.40;99.90
37342;DHT22;58643;49.052;8.518;2023-08-06T14:55:48;20.10;99.90
37342;DHT22;58643;49.052;8.518;2023-08-06T14:58:14;17.10;99.90
37342;DHT22;58643;49.052;8.518;2023-08-06T15:00:40;18.50;99.90
37342;DHT22;58643;49.052;8.518;2023-08-06T15:03:05;18.20;99.90
37342;DHT22;58643;49.052;8.518;2023-08-06T15:05:31;17.30;99.90
37342;DHT22;58643;49.052;8.518;2023-08-06T15:07:57;17.30;99.90
37342;DHT22;58643;49.052;8.518;2023-08-06T15:10:22;17.50;99.90
37342;DHT22;58643;49.052;8.518;2023-08-06T15:12:48;18.70;99.90
37342;DHT22;58643;49.052;8.518;2023-08-06T15:15:14;18.10;99.90
37342;DHT22;58643;49.052;8.518;2023-08-06T15:17:40;17.70;99.90
37342;DHT22;58643;49.052;8.518;2023-08-06T15:20:06;17.70;99.90
37342;DHT22;58643;49.052;8.518;2023-08-06T15:22:32;17.30;99.90
37342;DHT22;58643;49.052;8.518;2023-08-06T15:25:00;17.50;99.90
37342;DHT22;58643;49.052;8.518;2023-08-06T15:27:26;17.40;99.90
37342;DHT22;58643;49.052;8.518;2023-08-06T15:29:51;16.70;99.90
37342;DHT22;58643;49.052;8.518;2023-08-06T15:32:17;16.30;99.90
37342;DHT22;58643;49.052;8.518;2023-08-06T15:34:43;16.00;99.90
37342;DHT22;58643;49.052;8.518;2023-08-06T15:37:08;18.20;99.90
37342;DHT22;58643;49.052;8.518;2023-08-06T15:39:34;17.30;99.90
37342;DHT22;58643;49.052;8.518;2023-08-06T15:42:00;15.30;99.90
37342;DHT22;58643;49.052;8.518;2023-08-06T15:44:25;15.30;99.90
37342;DHT22;58643;49.052;8.518;2023-08-06T15:46:51;15.20;99.90
37342;DHT22;58643;49.052;8.518;2023-08-06T15:49:17;15.00;99.90
37342;DHT22;58643;49.052;8.518;2023-08-06T15:51:42;15.10;99.90
37342;DHT22;58643;49.052;8.518;2023-08-06T15:54:09;15.50;99.90
37342;DHT22;58643;49.052;8.518;2023-08-06T15:56:34;14.90;99.90
37342;DHT22;58643;49.052;8.518;2023-08-06T15:59:23;14.90;99.90
37342;DHT22;58643;49.052;8.518;2023-08-06T16:01:49;14.60;99.90
37342;DHT22;58643;49.052;8.518;2023-08-06T16:04:15;14.50;99.90
37342;DHT22;58643;49.052;8.518;2023-08-06T16:06:40;14.90;99.90
37342;DHT22;58643;49.052;8.518;2023-08-06T16:09:06;14.70;99.90
37342;DHT22;58643;49.052;8.518;2023-08-06T16:11:33;14.40;99.90
37342;DHT22;58643;49.052;8.518;2023-08-06T16:13:58;14.50;99.90
37342;DHT22;58643;49.052;8.518;2023-08-06T16:16:24;14.50;99.90
37342;DHT22;58643;49.052;8.518;2023-08-06T16:18:50;15.80;99.90
37342;DHT22;58643;49.052;8.518;2023-08-06T16:21:15;15.90;99.90
37342;DHT22;58643;49.052;8.518;2023-08-06T16:23:41;15.10;99.90
37342;DHT22;58643;49.052;8.518;2023-08-06T16:26:06;15.10;99.90
37342;DHT22;58643;49.052;8.518;2023-08-06T16:28:32;16.90;99.90
37342;DHT22;58643;49.052;8.518;2023-08-06T16:30:58;16.40;99.90
37342;DHT22;58643;49.052;8.518;2023-08-06T16:33:23;17.50;99.90
37342;DHT22;58643;49.052;8.518;2023-08-06T16:35:49;16.40;99.90
37342;DHT22;58643;49.052;8.518;2023-08-06T16:38:14;16.30;99.90
37342;DHT22;58643;49.052;8.518;2023-08-06T16:40:41;15.00;99.90
37342;DHT22;58643;49.052;8.518;2023-08-06T16:43:06;16.30;99.90
